AirNav   Duncan Aviation - Near you to keep you flying
 
 981 users online  

19NE Hoyt Airport
Mc Cook/Culbertson, Nebraska, USA

GOING TO MC COOK/CULBERTSON?


FAA INFORMATION EFFECTIVE 03 NOVEMBER 2022

Location

FAA Identifier: 19NE
Lat/Long: 40-06-30.0070N 100-48-31.5580W
40-06.500117N 100-48.525967W
40.1083353,-100.8087661
(estimated)
Elevation: 2707 ft. / 825.1 m (surveyed)
Variation: 09E (1985)
From city: 10 miles SW of central business district of the associated city
Time zone: UTC -6 (UTC -5 during Daylight Saving Time)
Zip code: 69024

Airport Operations

Airport use: Private use. Permission required prior to landing
Activation date: 04/1948
Control tower: no
ARTCC: DENVER CENTER
FSS: COLUMBUS FLIGHT SERVICE STATION
Attendance: CONTINUOUS
Wind indicator: no
Segmented circle: no

Airport Communications

WX ASOS at MCK (12 nm NE): 119.025 (308-345-1193)
WX AWOS-3 at ADT (19 nm SW): 118.675 (785-626-3572)

Nearby radio navigation aids

VOR radial/distance  VOR name  Freq  Var
MCKr232/11.4MC COOK VOR/DME115.3008E
HCTr155/21.4HAYES CENTER VORTAC117.7011E

 
NDB name  Hdg/Dist  Freq  Var  ID
OBERLIN317/20.934106EOIN --- .. -.
WHEATFIELD009/37.640808EJDM .--- -.. --

Airport Services

Airframe service: NONE
Powerplant service: NONE

Runway Information

Runway N/S

Dimensions: 4000 x 500 ft. / 1219 x 152 m
Surface: turf
RUNWAY N  RUNWAY S
Traffic pattern: leftleft
Obstructions: pline, 250 ft. from runwaynone

Airport Ownership and Management from official FAA records

Ownership: Privately-owned
Owner: WILLARD HOYT
37563 RD 710
CULBERTSON, NE 69024
Phone 402-604-0892
OTHER CONTACT: DAVE HADDEN P.O. BOX 221 BARTLEY, NE 69020 402-604-0892
Manager: DAVID HADDON
37563 RD 710
CULBERTSON, NE 69024
Phone (402) 604-0892

Additional Remarks

FOR CD CTC DENVER ARTCC AT 303-651-4257.

Instrument Procedures

There are no published instrument procedures at 19NE.

Some nearby airports with instrument procedures:

KMCK - Mc Cook Ben Nelson Regional Airport (12 nm NE)
KADT - Atwood-Rawlins County City-County Airport (19 nm SW)
KOIN - Oberlin Municipal Airport (21 nm SE)
KCSB - Cambridge Municipal Airport (32 nm E)
47V - Curtis Municipal Airport (35 nm NE)
 
Loc | Ops | Rwys | IFR | FBO | Links
Com | Nav | Svcs | Stats | Notes

AirBoss

 
Area around 19NE (Hoyt Airport)
 
Road maps at: MapQuest Bing Google
 
Aerial photo
No photo
 
Sectional chart

 
Airport distance calculator
Flying to Hoyt Airport? Find the distance to fly.

From to 19NE

Sunrise and sunset
Times for 30-Nov-2022
 Local
(UTC-6)
 Zulu
(UTC)
Morning civil twilight07:1613:16
Sunrise07:4613:46
Sunset17:1823:18
Evening civil twilight17:4823:48

Current date and time
Zulu (UTC)  01-Dec-2022 03:32:56
Local (UTC-6)  30-Nov-2022 21:32:56
 
METAR
KMCK 
12nm NE 
010253Z AUTO 14009KT 10SM CLR M04/M10 A3015 RMK AO2 SLP251 T10391100 58013
KADT 
19nm SW 
010310Z AUTO 17011KT 10SM CLR M02/M10 A3016 RMK AO2 T10231097
KOIN 
21nm SE 
010315Z AUTO 17013KT 10SM CLR M03/M09 A3019 RMK AO1 T10281093
TAF
KMCK 
12nm NE 
301722Z 3018/0118 VRB04KT P6SM SKC FM302100 16010KT P6SM FEW250 FM010000 13008KT P6SM SKC FM010500 15010G20KT P6SM FEW250 WS020/18040KT FM011100 16008KT P6SM SKC WS020/22035KT
NOTAMs
Click for the latest NOTAMs
NOTAMs are issued by the DoD/FAA and will open in a separate window not controlled by AirNav.

 

 
 

Would you like to see your business listed on this page?

 If your business provides an interesting product or service to pilots, flight crews, aircraft, or users of the Hoyt Airport, you should consider listing it here.  To start the listing process, click on the button below
 
Add a business
 

Other Pages about Hoyt Airport

Update a link
 
Copyright © AirNav, LLC. All rights reserved. Privacy Policy  Contact